sensor_id;sensor_type;location;lat;lon;timestamp;P1;durP1;ratioP1;P2;durP2;ratioP2
20318;SDS011;10317;47.254;11.314;2024-03-02T00:00:51;32.60;;;16.17;;
20318;SDS011;10317;47.254;11.314;2024-03-02T00:03:17;32.92;;;14.63;;
20318;SDS011;10317;47.254;11.314;2024-03-02T00:05:43;34.35;;;16.75;;
20318;SDS011;10317;47.254;11.314;2024-03-02T00:08:13;27.95;;;14.35;;
20318;SDS011;10317;47.254;11.314;2024-03-02T00:10:49;27.02;;;15.35;;
20318;SDS011;10317;47.254;11.314;2024-03-02T00:13:15;31.85;;;16.30;;
20318;SDS011;10317;47.254;11.314;2024-03-02T00:15:47;27.58;;;15.13;;
20318;SDS011;10317;47.254;11.314;2024-03-02T00:18:18;27.60;;;13.82;;
20318;SDS011;10317;47.254;11.314;2024-03-02T00:20:46;26.45;;;14.90;;
20318;SDS011;10317;47.254;11.314;2024-03-02T00:23:14;29.23;;;14.15;;
20318;SDS011;10317;47.254;11.314;2024-03-02T00:25:44;31.65;;;15.93;;
20318;SDS011;10317;47.254;11.314;2024-03-02T00:28:22;25.90;;;13.93;;
20318;SDS011;10317;47.254;11.314;2024-03-02T00:30:59;28.67;;;15.55;;
20318;SDS011;10317;47.254;11.314;2024-03-02T00:33:36;28.10;;;14.85;;
20318;SDS011;10317;47.254;11.314;2024-03-02T00:36:05;30.38;;;14.90;;
20318;SDS011;10317;47.254;11.314;2024-03-02T00:38:32;33.00;;;15.40;;
20318;SDS011;10317;47.254;11.314;2024-03-02T00:40:59;31.70;;;14.52;;
20318;SDS011;10317;47.254;11.314;2024-03-02T00:46:17;32.55;;;14.73;;
20318;SDS011;10317;47.254;11.314;2024-03-02T00:51:15;27.20;;;13.85;;
20318;SDS011;10317;47.254;11.314;2024-03-02T00:53:41;26.75;;;14.25;;
20318;SDS011;10317;47.254;11.314;2024-03-02T00:56:08;28.50;;;14.65;;
20318;SDS011;10317;47.254;11.314;2024-03-02T00:58:36;26.90;;;15.07;;
20318;SDS011;10317;47.254;11.314;2024-03-02T01:01:01;27.65;;;13.73;;
20318;SDS011;10317;47.254;11.314;2024-03-02T01:03:27;29.75;;;14.05;;
20318;SDS011;10317;47.254;11.314;2024-03-02T01:05:53;25.92;;;13.30;;
20318;SDS011;10317;47.254;11.314;2024-03-02T01:08:18;23.23;;;13.55;;
20318;SDS011;10317;47.254;11.314;2024-03-02T01:10:44;27.60;;;13.85;;
20318;SDS011;10317;47.254;11.314;2024-03-02T01:13:10;27.65;;;13.48;;
20318;SDS011;10317;47.254;11.314;2024-03-02T01:15:35;29.73;;;12.65;;
20318;SDS011;10317;47.254;11.314;2024-03-02T01:18:01;27.08;;;14.32;;
20318;SDS011;10317;47.254;11.314;2024-03-02T01:20:28;30.67;;;14.32;;
20318;SDS011;10317;47.254;11.314;2024-03-02T01:22:53;32.88;;;15.05;;
20318;SDS011;10317;47.254;11.314;2024-03-02T01:25:19;23.73;;;14.15;;
20318;SDS011;10317;47.254;11.314;2024-03-02T01:27:45;24.15;;;13.00;;
20318;SDS011;10317;47.254;11.314;2024-03-02T01:30:11;29.73;;;15.43;;
20318;SDS011;10317;47.254;11.314;2024-03-02T01:32:39;26.95;;;14.05;;
20318;SDS011;10317;47.254;11.314;2024-03-02T01:35:05;29.40;;;14.35;;
20318;SDS011;10317;47.254;11.314;2024-03-02T01:37:32;24.90;;;14.23;;
20318;SDS011;10317;47.254;11.314;2024-03-02T01:39:58;24.52;;;13.05;;
20318;SDS011;10317;47.254;11.314;2024-03-02T01:42:23;28.20;;;14.35;;
20318;SDS011;10317;47.254;11.314;2024-03-02T01:44:49;26.17;;;13.85;;
20318;SDS011;10317;47.254;11.314;2024-03-02T01:47:15;28.83;;;14.45;;
20318;SDS011;10317;47.254;11.314;2024-03-02T01:49:41;31.83;;;15.52;;
20318;SDS011;10317;47.254;11.314;2024-03-02T01:52:07;25.98;;;13.77;;
20318;SDS011;10317;47.254;11.314;2024-03-02T01:54:33;28.33;;;15.68;;
20318;SDS011;10317;47.254;11.314;2024-03-02T01:56:59;26.27;;;14.55;;
20318;SDS011;10317;47.254;11.314;2024-03-02T01:59:25;26.27;;;13.05;;
20318;SDS011;10317;47.254;11.314;2024-03-02T02:01:51;29.25;;;13.13;;
20318;SDS011;10317;47.254;11.314;2024-03-02T02:04:16;23.25;;;13.18;;
20318;SDS011;10317;47.254;11.314;2024-03-02T02:06:43;27.48;;;14.93;;
20318;SDS011;10317;47.254;11.314;2024-03-02T02:09:09;25.45;;;14.13;;
20318;SDS011;10317;47.254;11.314;2024-03-02T02:11:35;29.08;;;15.77;;
20318;SDS011;10317;47.254;11.314;2024-03-02T02:14:01;30.23;;;14.23;;
20318;SDS011;10317;47.254;11.314;2024-03-02T02:16:26;29.63;;;15.02;;
20318;SDS011;10317;47.254;11.314;2024-03-02T02:18:52;25.13;;;13.85;;
20318;SDS011;10317;47.254;11.314;2024-03-02T02:21:21;26.23;;;14.18;;
20318;SDS011;10317;47.254;11.314;2024-03-02T02:23:51;28.33;;;13.52;;
20318;SDS011;10317;47.254;11.314;2024-03-02T02:26:16;25.52;;;13.38;;
20318;SDS011;10317;47.254;11.314;2024-03-02T02:28:42;29.35;;;15.50;;
20318;SDS011;10317;47.254;11.314;2024-03-02T02:31:12;31.13;;;14.98;;
20318;SDS011;10317;47.254;11.314;2024-03-02T02:33:41;26.67;;;14.18;;
20318;SDS011;10317;47.254;11.314;2024-03-02T02:36:08;26.80;;;12.85;;
20318;SDS011;10317;47.254;11.314;2024-03-02T02:38:36;30.58;;;14.15;;
20318;SDS011;10317;47.254;11.314;2024-03-02T02:41:05;26.48;;;14.32;;
20318;SDS011;10317;47.254;11.314;2024-03-02T02:43:31;25.65;;;13.57;;
20318;SDS011;10317;47.254;11.314;2024-03-02T02:45:56;23.45;;;13.50;;
20318;SDS011;10317;47.254;11.314;2024-03-02T02:48:22;37.20;;;14.70;;
20318;SDS011;10317;47.254;11.314;2024-03-02T02:50:48;31.92;;;14.68;;
20318;SDS011;10317;47.254;11.314;2024-03-02T02:53:13;26.77;;;13.45;;
20318;SDS011;10317;47.254;11.314;2024-03-02T02:55:39;24.63;;;13.10;;
20318;SDS011;10317;47.254;11.314;2024-03-02T02:58:05;24.73;;;13.07;;
20318;SDS011;10317;47.254;11.314;2024-03-02T03:00:31;24.38;;;12.90;;
20318;SDS011;10317;47.254;11.314;2024-03-02T03:02:58;27.52;;;14.05;;
20318;SDS011;10317;47.254;11.314;2024-03-02T03:05:24;28.08;;;14.88;;
20318;SDS011;10317;47.254;11.314;2024-03-02T03:07:49;23.63;;;12.93;;
20318;SDS011;10317;47.254;11.314;2024-03-02T03:10:15;30.30;;;14.30;;
20318;SDS011;10317;47.254;11.314;2024-03-02T03:12:42;26.52;;;14.13;;
20318;SDS011;10317;47.254;11.314;2024-03-02T03:15:08;28.35;;;13.98;;
20318;SDS011;10317;47.254;11.314;2024-03-02T03:17:35;26.88;;;14.57;;
20318;SDS011;10317;47.254;11.314;2024-03-02T03:20:02;32.67;;;15.88;;
20318;SDS011;10317;47.254;11.314;2024-03-02T03:22:29;26.20;;;14.05;;
20318;SDS011;10317;47.254;11.314;2024-03-02T03:24:58;31.48;;;15.98;;
20318;SDS011;10317;47.254;11.314;2024-03-02T03:27:23;29.95;;;15.75;;
20318;SDS011;10317;47.254;11.314;2024-03-02T03:29:49;31.05;;;15.50;;
20318;SDS011;10317;47.254;11.314;2024-03-02T03:32:14;29.05;;;14.52;;
20318;SDS011;10317;47.254;11.314;2024-03-02T03:34:41;27.88;;;14.23;;
20318;SDS011;10317;47.254;11.314;2024-03-02T03:37:07;25.60;;;14.93;;
20318;SDS011;10317;47.254;11.314;2024-03-02T03:39:33;33.25;;;14.45;;
20318;SDS011;10317;47.254;11.314;2024-03-02T03:42:00;29.52;;;15.20;;
20318;SDS011;10317;47.254;11.314;2024-03-02T03:44:26;31.13;;;13.82;;
20318;SDS011;10317;47.254;11.314;2024-03-02T03:46:51;26.23;;;13.77;;
20318;SDS011;10317;47.254;11.314;2024-03-02T03:49:17;27.83;;;14.35;;
20318;SDS011;10317;47.254;11.314;2024-03-02T03:51:43;25.70;;;14.20;;
20318;SDS011;10317;47.254;11.314;2024-03-02T03:54:09;26.85;;;15.27;;
20318;SDS011;10317;47.254;11.314;2024-03-02T03:56:36;30.00;;;14.48;;
20318;SDS011;10317;47.254;11.314;2024-03-02T03:59:02;27.08;;;14.77;;
20318;SDS011;10317;47.254;11.314;2024-03-02T04:01:27;26.20;;;12.93;;
20318;SDS011;10317;47.254;11.314;2024-03-02T04:03:53;27.77;;;15.05;;
20318;SDS011;10317;47.254;11.314;2024-03-02T04:06:19;27.05;;;14.30;;
20318;SDS011;10317;47.254;11.314;2024-03-02T04:08:45;32.72;;;15.88;;
20318;SDS011;10317;47.254;11.314;2024-03-02T04:11:11;29.60;;;14.35;;
20318;SDS011;10317;47.254;11.314;2024-03-02T04:13:37;28.60;;;15.30;;
20318;SDS011;10317;47.254;11.314;2024-03-02T04:16:02;31.58;;;13.75;;
20318;SDS011;10317;47.254;11.314;2024-03-02T04:18:30;27.48;;;13.55;;
20318;SDS011;10317;47.254;11.314;2024-03-02T04:20:57;29.48;;;15.35;;
20318;SDS011;10317;47.254;11.314;2024-03-02T04:23:24;30.38;;;15.07;;
20318;SDS011;10317;47.254;11.314;2024-03-02T04:25:50;28.38;;;14.18;;
20318;SDS011;10317;47.254;11.314;2024-03-02T04:28:16;27.10;;;14.13;;
20318;SDS011;10317;47.254;11.314;2024-03-02T04:30:41;33.15;;;15.85;;
20318;SDS011;10317;47.254;11.314;2024-03-02T04:33:07;27.90;;;15.40;;
20318;SDS011;10317;47.254;11.314;2024-03-02T04:35:35;33.90;;;14.45;;
20318;SDS011;10317;47.254;11.314;2024-03-02T04:38:01;32.85;;;15.23;;
20318;SDS011;10317;47.254;11.314;2024-03-02T04:40:26;29.27;;;14.57;;
20318;SDS011;10317;47.254;11.314;2024-03-02T04:42:52;27.42;;;13.90;;
20318;SDS011;10317;47.254;11.314;2024-03-02T04:45:18;32.58;;;14.68;;
20318;SDS011;10317;47.254;11.314;2024-03-02T04:47:43;31.77;;;15.73;;
20318;SDS011;10317;47.254;11.314;2024-03-02T04:50:09;25.95;;;13.77;;
20318;SDS011;10317;47.254;11.314;2024-03-02T04:52:35;26.95;;;14.20;;
20318;SDS011;10317;47.254;11.314;2024-03-02T04:55:01;31.73;;;14.60;;
20318;SDS011;10317;47.254;11.314;2024-03-02T04:57:46;29.92;;;14.25;;
20318;SDS011;10317;47.254;11.314;2024-03-02T05:00:12;30.48;;;14.80;;
20318;SDS011;10317;47.254;11.314;2024-03-02T05:02:38;28.15;;;13.88;;
20318;SDS011;10317;47.254;11.314;2024-03-02T05:05:04;26.38;;;13.77;;
20318;SDS011;10317;47.254;11.314;2024-03-02T05:07:30;30.30;;;14.95;;
20318;SDS011;10317;47.254;11.314;2024-03-02T05:09:55;33.55;;;14.48;;
20318;SDS011;10317;47.254;11.314;2024-03-02T05:12:22;30.75;;;15.07;;
20318;SDS011;10317;47.254;11.314;2024-03-02T05:15:06;27.67;;;14.07;;
20318;SDS011;10317;47.254;11.314;2024-03-02T05:17:32;27.33;;;13.77;;
20318;SDS011;10317;47.254;11.314;2024-03-02T05:19:58;24.42;;;13.13;;
20318;SDS011;10317;47.254;11.314;2024-03-02T05:22:24;29.30;;;15.55;;
20318;SDS011;10317;47.254;11.314;2024-03-02T05:24:49;30.23;;;16.50;;
20318;SDS011;10317;47.254;11.314;2024-03-02T05:27:15;28.63;;;15.18;;
20318;SDS011;10317;47.254;11.314;2024-03-02T05:29:41;27.88;;;14.00;;
20318;SDS011;10317;47.254;11.314;2024-03-02T05:32:06;25.55;;;14.38;;
20318;SDS011;10317;47.254;11.314;2024-03-02T05:34:32;22.50;;;13.15;;
20318;SDS011;10317;47.254;11.314;2024-03-02T05:37:00;28.02;;;14.52;;
20318;SDS011;10317;47.254;11.314;2024-03-02T05:39:26;29.10;;;14.80;;
20318;SDS011;10317;47.254;11.314;2024-03-02T05:41:52;23.35;;;14.05;;
20318;SDS011;10317;47.254;11.314;2024-03-02T05:44:17;22.77;;;12.57;;
20318;SDS011;10317;47.254;11.314;2024-03-02T05:46:43;25.48;;;13.50;;
20318;SDS011;10317;47.254;11.314;2024-03-02T05:49:09;25.48;;;13.02;;
20318;SDS011;10317;47.254;11.314;2024-03-02T05:51:35;29.88;;;13.48;;
20318;SDS011;10317;47.254;11.314;2024-03-02T05:54:01;23.77;;;13.25;;
20318;SDS011;10317;47.254;11.314;2024-03-02T05:56:27;24.73;;;12.32;;
20318;SDS011;10317;47.254;11.314;2024-03-02T05:58:52;29.15;;;14.32;;
20318;SDS011;10317;47.254;11.314;2024-03-02T06:01:18;31.90;;;14.55;;
20318;SDS011;10317;47.254;11.314;2024-03-02T06:03:44;23.77;;;13.27;;
20318;SDS011;10317;47.254;11.314;2024-03-02T06:06:09;23.27;;;13.45;;
20318;SDS011;10317;47.254;11.314;2024-03-02T06:08:35;30.63;;;13.15;;
20318;SDS011;10317;47.254;11.314;2024-03-02T06:11:01;19.40;;;12.25;;
20318;SDS011;10317;47.254;11.314;2024-03-02T06:13:27;19.85;;;11.93;;
20318;SDS011;10317;47.254;11.314;2024-03-02T06:15:52;25.13;;;13.77;;
20318;SDS011;10317;47.254;11.314;2024-03-02T06:18:18;25.30;;;13.07;;
20318;SDS011;10317;47.254;11.314;2024-03-02T06:20:44;22.73;;;12.15;;
20318;SDS011;10317;47.254;11.314;2024-03-02T06:23:09;22.65;;;13.23;;
20318;SDS011;10317;47.254;11.314;2024-03-02T06:25:35;25.48;;;11.73;;
20318;SDS011;10317;47.254;11.314;2024-03-02T06:28:01;20.80;;;11.95;;
20318;SDS011;10317;47.254;11.314;2024-03-02T06:30:26;22.52;;;12.50;;
20318;SDS011;10317;47.254;11.314;2024-03-02T06:32:53;27.42;;;12.57;;
20318;SDS011;10317;47.254;11.314;2024-03-02T06:35:19;22.45;;;12.40;;
20318;SDS011;10317;47.254;11.314;2024-03-02T06:37:44;29.70;;;13.60;;
20318;SDS011;10317;47.254;11.314;2024-03-02T06:40:10;25.23;;;11.70;;
20318;SDS011;10317;47.254;11.314;2024-03-02T06:42:36;22.15;;;10.98;;
20318;SDS011;10317;47.254;11.314;2024-03-02T06:45:02;22.73;;;11.82;;
20318;SDS011;10317;47.254;11.314;2024-03-02T06:47:28;21.50;;;11.55;;
20318;SDS011;10317;47.254;11.314;2024-03-02T06:49:54;30.35;;;12.85;;
20318;SDS011;10317;47.254;11.314;2024-03-02T06:52:20;25.20;;;13.10;;
20318;SDS011;10317;47.254;11.314;2024-03-02T06:54:46;24.48;;;12.43;;
20318;SDS011;10317;47.254;11.314;2024-03-02T06:57:11;22.75;;;13.10;;
20318;SDS011;10317;47.254;11.314;2024-03-02T06:59:37;24.27;;;13.15;;
20318;SDS011;10317;47.254;11.314;2024-03-02T07:02:03;25.52;;;12.77;;
20318;SDS011;10317;47.254;11.314;2024-03-02T07:04:29;27.70;;;14.00;;
20318;SDS011;10317;47.254;11.314;2024-03-02T07:06:54;31.70;;;14.95;;
20318;SDS011;10317;47.254;11.314;2024-03-02T07:09:20;25.98;;;14.13;;
20318;SDS011;10317;47.254;11.314;2024-03-02T07:11:48;24.27;;;12.77;;
20318;SDS011;10317;47.254;11.314;2024-03-02T07:14:14;23.83;;;12.85;;
20318;SDS011;10317;47.254;11.314;2024-03-02T07:16:40;27.65;;;14.45;;
20318;SDS011;10317;47.254;11.314;2024-03-02T07:19:08;29.25;;;14.18;;
20318;SDS011;10317;47.254;11.314;2024-03-02T07:21:33;27.98;;;15.00;;
20318;SDS011;10317;47.254;11.314;2024-03-02T07:23:59;23.42;;;13.27;;
20318;SDS011;10317;47.254;11.314;2024-03-02T07:26:27;25.35;;;13.80;;
20318;SDS011;10317;47.254;11.314;2024-03-02T07:28:55;28.65;;;13.65;;
20318;SDS011;10317;47.254;11.314;2024-03-02T07:31:20;26.23;;;14.48;;
20318;SDS011;10317;47.254;11.314;2024-03-02T07:33:46;29.30;;;13.85;;
20318;SDS011;10317;47.254;11.314;2024-03-02T07:36:12;24.45;;;14.52;;
20318;SDS011;10317;47.254;11.314;2024-03-02T07:38:38;28.90;;;14.48;;
20318;SDS011;10317;47.254;11.314;2024-03-02T07:41:03;30.17;;;15.02;;
20318;SDS011;10317;47.254;11.314;2024-03-02T07:43:29;25.58;;;13.65;;
20318;SDS011;10317;47.254;11.314;2024-03-02T07:45:56;29.73;;;15.50;;
20318;SDS011;10317;47.254;11.314;2024-03-02T07:48:22;25.20;;;13.70;;
20318;SDS011;10317;47.254;11.314;2024-03-02T07:50:48;33.85;;;15.43;;
20318;SDS011;10317;47.254;11.314;2024-03-02T07:53:13;27.00;;;15.77;;
20318;SDS011;10317;47.254;11.314;2024-03-02T07:55:39;31.35;;;14.65;;
20318;SDS011;10317;47.254;11.314;2024-03-02T07:58:05;32.80;;;17.65;;
20318;SDS011;10317;47.254;11.314;2024-03-02T08:00:31;26.13;;;13.77;;
20318;SDS011;10317;47.254;11.314;2024-03-02T08:02:57;27.65;;;14.15;;
20318;SDS011;10317;47.254;11.314;2024-03-02T08:05:23;22.98;;;13.65;;
20318;SDS011;10317;47.254;11.314;2024-03-02T08:07:49;21.20;;;12.93;;
20318;SDS011;10317;47.254;11.314;2024-03-02T08:10:18;22.83;;;11.63;;
20318;SDS011;10317;47.254;11.314;2024-03-02T08:12:44;20.42;;;11.23;;
20318;SDS011;10317;47.254;11.314;2024-03-02T08:15:10;19.73;;;12.63;;
20318;SDS011;10317;47.254;11.314;2024-03-02T08:17:37;21.25;;;12.45;;
20318;SDS011;10317;47.254;11.314;2024-03-02T08:20:09;19.65;;;12.60;;
20318;SDS011;10317;47.254;11.314;2024-03-02T08:22:36;18.23;;;11.18;;
20318;SDS011;10317;47.254;11.314;2024-03-02T08:25:02;14.43;;;11.00;;
20318;SDS011;10317;47.254;11.314;2024-03-02T08:27:28;15.02;;;10.75;;
20318;SDS011;10317;47.254;11.314;2024-03-02T08:29:54;21.58;;;12.25;;
20318;SDS011;10317;47.254;11.314;2024-03-02T08:32:19;22.48;;;13.25;;
20318;SDS011;10317;47.254;11.314;2024-03-02T08:34:45;20.15;;;12.43;;
20318;SDS011;10317;47.254;11.314;2024-03-02T08:37:11;23.33;;;12.63;;
20318;SDS011;10317;47.254;11.314;2024-03-02T08:39:36;20.00;;;12.55;;
20318;SDS011;10317;47.254;11.314;2024-03-02T08:42:02;21.10;;;12.25;;
20318;SDS011;10317;47.254;11.314;2024-03-02T08:44:29;22.75;;;13.40;;
20318;SDS011;10317;47.254;11.314;2024-03-02T08:46:55;21.00;;;12.05;;
20318;SDS011;10317;47.254;11.314;2024-03-02T08:49:21;20.02;;;11.85;;
20318;SDS011;10317;47.254;11.314;2024-03-02T08:51:47;20.40;;;11.98;;
20318;SDS011;10317;47.254;11.314;2024-03-02T08:54:19;23.42;;;13.20;;
20318;SDS011;10317;47.254;11.314;2024-03-02T08:56:46;22.00;;;12.77;;
20318;SDS011;10317;47.254;11.314;2024-03-02T08:59:12;25.20;;;12.93;;
20318;SDS011;10317;47.254;11.314;2024-03-02T09:01:38;21.13;;;12.45;;
20318;SDS011;10317;47.254;11.314;2024-03-02T09:04:06;23.38;;;12.75;;
20318;SDS011;10317;47.254;11.314;2024-03-02T09:06:33;23.90;;;11.90;;
20318;SDS011;10317;47.254;11.314;2024-03-02T09:08:59;22.35;;;12.95;;
20318;SDS011;10317;47.254;11.314;2024-03-02T09:11:25;22.60;;;12.18;;
20318;SDS011;10317;47.254;11.314;2024-03-02T09:13:51;23.73;;;12.50;;
20318;SDS011;10317;47.254;11.314;2024-03-02T09:16:18;19.75;;;11.85;;
20318;SDS011;10317;47.254;11.314;2024-03-02T09:18:44;16.80;;;10.82;;
20318;SDS011;10317;47.254;11.314;2024-03-02T09:21:10;17.75;;;10.70;;
20318;SDS011;10317;47.254;11.314;2024-03-02T09:23:35;17.00;;;10.40;;
20318;SDS011;10317;47.254;11.314;2024-03-02T09:26:01;13.38;;;9.32;;
20318;SDS011;10317;47.254;11.314;2024-03-02T09:28:28;17.20;;;10.43;;
20318;SDS011;10317;47.254;11.314;2024-03-02T09:30:54;17.15;;;10.45;;
20318;SDS011;10317;47.254;11.314;2024-03-02T09:33:19;13.48;;;8.90;;
20318;SDS011;10317;47.254;11.314;2024-03-02T09:35:45;15.10;;;9.77;;
20318;SDS011;10317;47.254;11.314;2024-03-02T09:38:11;16.63;;;10.32;;
20318;SDS011;10317;47.254;11.314;2024-03-02T09:40:37;15.02;;;10.18;;
20318;SDS011;10317;47.254;11.314;2024-03-02T09:43:02;16.27;;;9.77;;
20318;SDS011;10317;47.254;11.314;2024-03-02T09:45:28;13.52;;;8.52;;
20318;SDS011;10317;47.254;11.314;2024-03-02T09:47:55;11.52;;;8.45;;
20318;SDS011;10317;47.254;11.314;2024-03-02T09:50:21;12.45;;;8.95;;
20318;SDS011;10317;47.254;11.314;2024-03-02T09:52:50;11.60;;;8.40;;
20318;SDS011;10317;47.254;11.314;2024-03-02T09:55:17;14.25;;;8.30;;
20318;SDS011;10317;47.254;11.314;2024-03-02T09:57:45;13.27;;;8.00;;
20318;SDS011;10317;47.254;11.314;2024-03-02T10:00:11;12.20;;;7.63;;
20318;SDS011;10317;47.254;11.314;2024-03-02T10:02:40;11.00;;;6.80;;
20318;SDS011;10317;47.254;11.314;2024-03-02T10:05:06;13.95;;;7.78;;
20318;SDS011;10317;47.254;11.314;2024-03-02T10:07:35;8.57;;;6.18;;
20318;SDS011;10317;47.254;11.314;2024-03-02T10:10:13;9.88;;;6.13;;
20318;SDS011;10317;47.254;11.314;2024-03-02T10:12:40;10.82;;;6.50;;
20318;SDS011;10317;47.254;11.314;2024-03-02T10:15:05;8.00;;;5.72;;
20318;SDS011;10317;47.254;11.314;2024-03-02T10:17:32;8.90;;;5.88;;
20318;SDS011;10317;47.254;11.314;2024-03-02T10:19:58;7.32;;;5.55;;
20318;SDS011;10317;47.254;11.314;2024-03-02T10:22:24;8.70;;;6.15;;
20318;SDS011;10317;47.254;11.314;2024-03-02T10:24:50;6.18;;;4.93;;
20318;SDS011;10317;47.254;11.314;2024-03-02T10:27:17;6.95;;;5.32;;
20318;SDS011;10317;47.254;11.314;2024-03-02T10:29:47;6.90;;;5.72;;
20318;SDS011;10317;47.254;11.314;2024-03-02T10:32:13;6.18;;;5.53;;
20318;SDS011;10317;47.254;11.314;2024-03-02T10:34:40;6.38;;;5.38;;
20318;SDS011;10317;47.254;11.314;2024-03-02T10:37:06;5.47;;;4.72;;
20318;SDS011;10317;47.254;11.314;2024-03-02T10:39:34;6.45;;;5.07;;
20318;SDS011;10317;47.254;11.314;2024-03-02T10:42:04;7.15;;;5.63;;
20318;SDS011;10317;47.254;11.314;2024-03-02T10:44:32;6.15;;;5.45;;
20318;SDS011;10317;47.254;11.314;2024-03-02T10:47:02;7.50;;;6.45;;
20318;SDS011;10317;47.254;11.314;2024-03-02T10:49:29;5.63;;;5.13;;
20318;SDS011;10317;47.254;11.314;2024-03-02T10:51:56;6.40;;;5.20;;
20318;SDS011;10317;47.254;11.314;2024-03-02T10:54:23;7.10;;;5.90;;
20318;SDS011;10317;47.254;11.314;2024-03-02T10:56:52;8.05;;;6.00;;
20318;SDS011;10317;47.254;11.314;2024-03-02T10:59:34;6.45;;;5.65;;
20318;SDS011;10317;47.254;11.314;2024-03-02T11:02:02;6.93;;;5.18;;
20318;SDS011;10317;47.254;11.314;2024-03-02T11:04:29;5.60;;;4.97;;
20318;SDS011;10317;47.254;11.314;2024-03-02T11:06:59;5.50;;;5.00;;
20318;SDS011;10317;47.254;11.314;2024-03-02T11:09:28;6.03;;;5.05;;
20318;SDS011;10317;47.254;11.314;2024-03-02T11:12:04;5.65;;;5.05;;
20318;SDS011;10317;47.254;11.314;2024-03-02T11:14:37;5.20;;;4.75;;
20318;SDS011;10317;47.254;11.314;2024-03-02T11:17:10;5.07;;;4.28;;
20318;SDS011;10317;47.254;11.314;2024-03-02T11:19:38;4.55;;;4.00;;
20318;SDS011;10317;47.254;11.314;2024-03-02T11:22:05;6.07;;;4.47;;
20318;SDS011;10317;47.254;11.314;2024-03-02T11:24:32;4.07;;;3.75;;
20318;SDS011;10317;47.254;11.314;2024-03-02T11:26:59;4.28;;;3.65;;
20318;SDS011;10317;47.254;11.314;2024-03-02T11:34:39;3.85;;;3.53;;
20318;SDS011;10317;47.254;11.314;2024-03-02T11:37:14;3.40;;;2.92;;
20318;SDS011;10317;47.254;11.314;2024-03-02T11:39:42;3.70;;;2.97;;
20318;SDS011;10317;47.254;11.314;2024-03-02T11:42:09;4.65;;;2.72;;
20318;SDS011;10317;47.254;11.314;2024-03-02T11:44:37;3.08;;;2.80;;
20318;SDS011;10317;47.254;11.314;2024-03-02T11:47:07;4.38;;;3.08;;
20318;SDS011;10317;47.254;11.314;2024-03-02T11:52:31;2.95;;;2.17;;
20318;SDS011;10317;47.254;11.314;2024-03-02T11:54:59;2.67;;;2.47;;
20318;SDS011;10317;47.254;11.314;2024-03-02T11:57:28;3.03;;;2.33;;
20318;SDS011;10317;47.254;11.314;2024-03-02T11:59:56;3.50;;;1.98;;
20318;SDS011;10317;47.254;11.314;2024-03-02T12:02:23;1.92;;;1.73;;
20318;SDS011;10317;47.254;11.314;2024-03-02T12:04:49;2.38;;;2.00;;
20318;SDS011;10317;47.254;11.314;2024-03-02T12:07:21;1.58;;;1.25;;
20318;SDS011;10317;47.254;11.314;2024-03-02T12:09:48;3.60;;;1.17;;
20318;SDS011;10317;47.254;11.314;2024-03-02T12:12:15;0.85;;;0.80;;
20318;SDS011;10317;47.254;11.314;2024-03-02T12:14:49;0.50;;;0.50;;
20318;SDS011;10317;47.254;11.314;2024-03-02T12:17:17;0.38;;;0.38;;
20318;SDS011;10317;47.254;11.314;2024-03-02T12:19:43;0.52;;;0.32;;
20318;SDS011;10317;47.254;11.314;2024-03-02T12:22:09;1.10;;;0.30;;
20318;SDS011;10317;47.254;11.314;2024-03-02T12:24:35;0.30;;;0.30;;
20318;SDS011;10317;47.254;11.314;2024-03-02T12:27:08;0.55;;;0.30;;
20318;SDS011;10317;47.254;11.314;2024-03-02T12:29:34;0.20;;;0.20;;
20318;SDS011;10317;47.254;11.314;2024-03-02T12:32:00;0.40;;;0.40;;
20318;SDS011;10317;47.254;11.314;2024-03-02T12:34:27;1.55;;;0.40;;
20318;SDS011;10317;47.254;11.314;2024-03-02T12:36:53;0.30;;;0.25;;
20318;SDS011;10317;47.254;11.314;2024-03-02T12:39:19;0.30;;;0.20;;
20318;SDS011;10317;47.254;11.314;2024-03-02T12:41:48;0.40;;;0.40;;
20318;SDS011;10317;47.254;11.314;2024-03-02T12:44:16;0.43;;;0.43;;
20318;SDS011;10317;47.254;11.314;2024-03-02T12:46:42;0.30;;;0.30;;
20318;SDS011;10317;47.254;11.314;2024-03-02T12:49:12;0.30;;;0.30;;
20318;SDS011;10317;47.254;11.314;2024-03-02T12:51:40;0.20;;;0.20;;
20318;SDS011;10317;47.254;11.314;2024-03-02T12:54:10;0.20;;;0.20;;
20318;SDS011;10317;47.254;11.314;2024-03-02T12:56:40;0.73;;;0.38;;
20318;SDS011;10317;47.254;11.314;2024-03-02T12:59:10;2.00;;;0.30;;
20318;SDS011;10317;47.254;11.314;2024-03-02T13:01:55;1.00;;;0.30;;
20318;SDS011;10317;47.254;11.314;2024-03-02T13:04:27;0.60;;;0.35;;
20318;SDS011;10317;47.254;11.314;2024-03-02T13:06:55;0.17;;;0.17;;
20318;SDS011;10317;47.254;11.314;2024-03-02T13:09:22;0.20;;;0.20;;
20318;SDS011;10317;47.254;11.314;2024-03-02T13:11:49;0.25;;;0.25;;
20318;SDS011;10317;47.254;11.314;2024-03-02T13:14:15;0.25;;;0.25;;
20318;SDS011;10317;47.254;11.314;2024-03-02T13:16:40;0.30;;;0.30;;
20318;SDS011;10317;47.254;11.314;2024-03-02T13:19:09;0.30;;;0.30;;
20318;SDS011;10317;47.254;11.314;2024-03-02T13:21:37;0.40;;;0.40;;
20318;SDS011;10317;47.254;11.314;2024-03-02T13:24:04;0.30;;;0.30;;
20318;SDS011;10317;47.254;11.314;2024-03-02T13:26:30;0.45;;;0.45;;
20318;SDS011;10317;47.254;11.314;2024-03-02T13:28:56;0.30;;;0.30;;
20318;SDS011;10317;47.254;11.314;2024-03-02T13:31:22;0.30;;;0.30;;
20318;SDS011;10317;47.254;11.314;2024-03-02T13:33:48;0.30;;;0.30;;
20318;SDS011;10317;47.254;11.314;2024-03-02T13:36:13;0.30;;;0.30;;
20318;SDS011;10317;47.254;11.314;2024-03-02T13:38:39;0.20;;;0.20;;
20318;SDS011;10317;47.254;11.314;2024-03-02T13:41:05;0.20;;;0.20;;
20318;SDS011;10317;47.254;11.314;2024-03-02T13:43:30;0.30;;;0.30;;
20318;SDS011;10317;47.254;11.314;2024-03-02T13:45:57;0.38;;;0.30;;
20318;SDS011;10317;47.254;11.314;2024-03-02T13:48:24;0.55;;;0.30;;
20318;SDS011;10317;47.254;11.314;2024-03-02T13:50:51;0.20;;;0.20;;
20318;SDS011;10317;47.254;11.314;2024-03-02T13:53:18;0.30;;;0.30;;
20318;SDS011;10317;47.254;11.314;2024-03-02T13:55:44;0.40;;;0.40;;
20318;SDS011;10317;47.254;11.314;2024-03-02T13:58:10;2.72;;;0.57;;
20318;SDS011;10317;47.254;11.314;2024-03-02T14:00:36;0.47;;;0.32;;
20318;SDS011;10317;47.254;11.314;2024-03-02T14:03:03;0.30;;;0.30;;
20318;SDS011;10317;47.254;11.314;2024-03-02T14:05:30;0.30;;;0.30;;
20318;SDS011;10317;47.254;11.314;2024-03-02T14:07:56;0.30;;;0.30;;
20318;SDS011;10317;47.254;11.314;2024-03-02T14:10:22;0.43;;;0.43;;
20318;SDS011;10317;47.254;11.314;2024-03-02T14:12:48;0.52;;;0.50;;
20318;SDS011;10317;47.254;11.314;2024-03-02T14:15:14;0.32;;;0.32;;
20318;SDS011;10317;47.254;11.314;2024-03-02T14:17:40;0.57;;;0.40;;
20318;SDS011;10317;47.254;11.314;2024-03-02T14:20:06;1.08;;;0.60;;
20318;SDS011;10317;47.254;11.314;2024-03-02T14:22:32;0.40;;;0.40;;
20318;SDS011;10317;47.254;11.314;2024-03-02T14:24:59;0.60;;;0.40;;
20318;SDS011;10317;47.254;11.314;2024-03-02T14:27:24;0.40;;;0.40;;